Weather at Victoria (General Hospital) Heliport

Public forecast

Using degrees Celsius for public forecast. Weather courtesy of forecast.io.

Closest aviation weather report (METAR) to Victoria (General Hospital) Heliport

Closest report is Victoria Harbour Seaplane Base, 3.6 nm (6.6 km) SE.

2024/05/26 22:00 (retrieved 14 minutes ago)

CYWH 262200Z 12008KT 15SM SCT015 OVC050 12/09 A3011 RMK SC4SC4 SLP197

Closest aviation forecast (TAF) to Victoria (General Hospital) Heliport

Closest forecast is Victoria Harbour Seaplane Base, 3.6 nm (6.6 km) SE.

2024/05/26 21:00 (retrieved 1 hour ago)

TAF CYWH 262040Z 2621/2704 11008KT P6SM SCT015 BKN040 TEMPO 2621/2704 P6SM -SHRA SCT009 BKN015 BECMG 2621/2623 24005KT RMK NXT FCST BY 271400Z